Time;durP1;ratioP1;P1;durP2;ratioP2;P2;SDS_P1;SDS_P2;PMS_P1;PMS_P2;Temp;Humidity;BMP_temperature;BMP_pressure;BME280_temperature;BME280_humidity;BME280_pressure;Samples;Min_cycle;Max_cycle;Signal;HPM_P1;HPM_P2
2022/05/01 00:00:37;;;;;;;5.17;2.40;;;10.50;99.90;;;;;;5042797;28;20309;-71
2022/05/01 00:03:02;;;;;;;3.00;2.10;;;10.50;99.90;;;;;;5044087;28;20248;-70
2022/05/01 00:05:29;;;;;;;4.47;2.17;;;10.50;99.90;;;;;;5043678;28;20186;-70
2022/05/01 00:07:55;;;;;;;2.70;2.50;;;10.50;99.90;;;;;;5042260;28;20185;-69
2022/05/01 00:10:21;;;;;;;2.97;2.50;;;10.50;99.90;;;;;;5043830;28;20215;-69
2022/05/01 00:12:46;;;;;;;2.00;1.90;;;10.40;99.90;;;;;;5044356;28;20174;-71
2022/05/01 00:15:12;;;;;;;2.80;2.20;;;10.30;99.90;;;;;;5044055;28;20252;-70
2022/05/01 00:17:38;;;;;;;4.13;2.93;;;10.30;99.90;;;;;;5041549;28;20195;-71
2022/05/01 00:20:05;;;;;;;4.10;2.97;;;10.30;99.90;;;;;;5044580;28;20241;-70
2022/05/01 00:22:30;;;;;;;3.17;2.30;;;10.30;99.90;;;;;;5044102;28;20206;-71
2022/05/01 00:24:56;;;;;;;2.93;2.63;;;10.30;99.90;;;;;;5044151;28;20189;-70
2022/05/01 00:27:22;;;;;;;4.77;2.37;;;10.40;99.90;;;;;;5043008;28;20182;-71
2022/05/01 00:29:48;;;;;;;2.70;2.50;;;10.50;99.90;;;;;;5044591;28;20587;-70
2022/05/01 00:32:13;;;;;;;2.90;2.60;;;10.40;99.90;;;;;;5043820;28;20201;-70
2022/05/01 00:37:23;;;;;;;3.23;2.93;;;10.40;99.90;;;;;;5043021;28;20224;-72
2022/05/01 00:39:49;;;;;;;3.53;2.50;;;10.30;99.90;;;;;;5043981;28;20253;-71
2022/05/01 00:42:18;;;;;;;3.33;2.80;;;10.20;99.90;;;;;;5043612;28;20202;-70
2022/05/01 00:44:44;;;;;;;3.23;2.90;;;10.20;99.90;;;;;;5043858;28;20178;-71
2022/05/01 00:47:10;;;;;;;3.27;2.70;;;10.20;99.90;;;;;;5042808;28;20216;-71
2022/05/01 00:49:36;;;;;;;2.63;2.43;;;10.30;99.90;;;;;;5043588;28;20206;-70
2022/05/01 00:52:09;;;;;;;3.00;2.63;;;10.20;99.90;;;;;;5043595;28;20205;-70
2022/05/01 00:54:39;;;;;;;4.13;2.77;;;10.10;99.90;;;;;;5043712;28;20716;-70
2022/05/01 00:57:06;;;;;;;3.20;2.90;;;10.00;99.90;;;;;;5042841;28;20201;-70
2022/05/01 00:59:33;;;;;;;3.63;2.83;;;10.00;99.90;;;;;;5043435;28;20214;-70
2022/05/01 01:01:59;;;;;;;3.33;3.03;;;9.90;99.90;;;;;;5043597;28;20217;-69
2022/05/01 01:04:25;;;;;;;3.20;2.90;;;9.80;99.90;;;;;;5043746;28;20533;-70
2022/05/01 01:06:51;;;;;;;5.10;2.80;;;9.80;99.90;;;;;;5042823;28;20586;-70
2022/05/01 01:09:18;;;;;;;5.23;2.83;;;9.80;99.90;;;;;;5043362;28;20202;-70
2022/05/01 01:11:44;;;;;;;3.00;2.37;;;9.90;99.90;;;;;;5043322;28;20277;-71
2022/05/01 01:14:11;;;;;;;3.80;2.80;;;9.90;99.90;;;;;;5043467;28;20198;-69
2022/05/01 01:16:38;;;;;;;2.67;2.47;;;9.90;99.90;;;;;;5042693;28;20243;-69
2022/05/01 01:19:05;;;;;;;3.47;2.57;;;9.90;99.90;;;;;;5043127;28;20198;-69
2022/05/01 01:21:32;;;;;;;3.23;2.40;;;10.00;99.90;;;;;;5043482;28;20676;-70
2022/05/01 01:23:59;;;;;;;3.90;2.77;;;10.00;99.90;;;;;;5041957;28;20218;-69
2022/05/01 01:26:26;;;;;;;3.47;2.80;;;10.00;99.90;;;;;;5042693;28;20190;-72
2022/05/01 01:28:55;;;;;;;3.03;2.50;;;10.10;99.90;;;;;;5046095;28;20210;-70
2022/05/01 01:31:41;;;;;;;2.90;2.60;;;10.00;99.90;;;;;;5045742;28;20186;-71
2022/05/01 01:34:11;;;;;;;4.53;2.50;;;10.00;99.90;;;;;;5046702;28;20182;-69
2022/05/01 01:36:38;;;;;;;4.17;2.60;;;10.00;99.90;;;;;;5044796;28;20233;-71
2022/05/01 01:39:05;;;;;;;2.67;2.43;;;10.10;99.90;;;;;;5046271;28;20556;-69
2022/05/01 01:41:31;;;;;;;3.73;2.80;;;10.10;99.90;;;;;;5046834;28;20198;-69
2022/05/01 01:43:58;;;;;;;3.83;2.70;;;10.10;99.90;;;;;;5045298;28;20182;-70
2022/05/01 01:46:24;;;;;;;2.90;2.50;;;10.10;99.90;;;;;;5046246;28;20245;-71
2022/05/01 01:48:53;;;;;;;3.10;2.80;;;10.00;99.90;;;;;;5046322;28;20206;-70
2022/05/01 01:51:19;;;;;;;3.27;2.70;;;10.00;99.90;;;;;;5046249;28;20227;-72
2022/05/01 01:53:45;;;;;;;2.93;2.70;;;10.00;99.90;;;;;;5046441;28;20646;-70
2022/05/01 01:56:11;;;;;;;4.73;2.67;;;10.00;99.90;;;;;;5045969;28;20182;-70
2022/05/01 01:58:39;;;;;;;4.17;2.80;;;10.00;99.90;;;;;;5046169;28;20217;-70
2022/05/01 02:01:06;;;;;;;2.53;2.33;;;10.00;99.90;;;;;;5046236;28;20217;-70
2022/05/01 02:03:33;;;;;;;2.63;2.43;;;10.00;99.90;;;;;;5046838;28;20193;-69
2022/05/01 02:05:59;;;;;;;2.87;2.67;;;10.00;99.90;;;;;;5046103;28;20688;-70
2022/05/01 02:08:26;;;;;;;4.90;2.77;;;10.10;99.90;;;;;;5044084;28;20186;-70
2022/05/01 02:10:52;;;;;;;3.03;2.80;;;10.00;99.90;;;;;;5045064;28;20625;-71
2022/05/01 02:13:18;;;;;;;3.43;3.13;;;10.10;99.90;;;;;;5046261;28;20627;-72
2022/05/01 02:15:44;;;;;;;3.50;2.70;;;10.10;99.90;;;;;;5046174;28;20677;-68
2022/05/01 02:18:10;;;;;;;3.23;2.93;;;10.10;99.90;;;;;;5045146;28;20225;-68
2022/05/01 02:23:24;;;;;;;4.07;2.60;;;10.10;99.90;;;;;;5045646;28;20615;-70
2022/05/01 02:25:50;;;;;;;3.40;2.67;;;10.00;99.90;;;;;;5045720;28;20178;-70
2022/05/01 02:28:16;;;;;;;3.40;2.90;;;10.00;99.90;;;;;;5045436;28;20199;-69
2022/05/01 02:30:43;;;;;;;3.77;2.80;;;10.00;99.90;;;;;;5045854;28;20216;-69
2022/05/01 02:33:09;;;;;;;3.47;3.17;;;10.00;99.90;;;;;;5044318;28;20186;-68
2022/05/01 02:35:37;;;;;;;3.27;2.97;;;10.00;99.90;;;;;;5045946;28;20186;-68
2022/05/01 02:38:04;;;;;;;3.23;2.93;;;9.90;99.90;;;;;;5045108;28;20197;-69
2022/05/01 02:40:30;;;;;;;3.57;2.80;;;10.00;99.90;;;;;;5044700;28;20321;-69
2022/05/01 02:42:58;;;;;;;3.33;3.00;;;10.00;99.90;;;;;;5045664;28;20234;-68
2022/05/01 02:45:24;;;;;;;2.97;2.73;;;10.00;99.90;;;;;;5045792;28;20206;-69
2022/05/01 02:47:50;;;;;;;3.37;3.07;;;10.00;99.90;;;;;;5044557;28;20186;-68
2022/05/01 02:50:16;;;;;;;3.80;3.23;;;10.00;99.90;;;;;;5045530;28;20205;-69
2022/05/01 02:52:42;;;;;;;3.60;2.73;;;9.90;99.90;;;;;;5045483;28;20657;-70
2022/05/01 02:55:09;;;;;;;3.80;3.23;;;10.00;99.90;;;;;;5044207;28;20197;-70
2022/05/01 02:57:35;;;;;;;5.53;3.27;;;10.00;99.90;;;;;;5045078;28;20186;-70
2022/05/01 03:00:01;;;;;;;3.40;3.03;;;10.00;99.90;;;;;;5045544;28;20217;-70
2022/05/01 03:02:26;;;;;;;3.40;3.10;;;9.90;99.90;;;;;;5045545;28;20206;-70
2022/05/01 03:04:52;;;;;;;6.13;3.53;;;9.90;99.90;;;;;;5045015;28;20699;-72
2022/05/01 03:07:17;;;;;;;3.50;3.07;;;9.80;99.90;;;;;;5044435;28;20182;-70
2022/05/01 03:09:43;;;;;;;4.23;3.03;;;9.80;99.90;;;;;;5045007;28;20289;-71
2022/05/01 03:12:09;;;;;;;3.50;3.20;;;9.70;99.90;;;;;;5045356;28;20251;-70
2022/05/01 03:14:34;;;;;;;3.73;3.40;;;9.70;99.90;;;;;;5045046;28;20193;-71
2022/05/01 03:17:00;;;;;;;3.97;3.63;;;9.60;99.90;;;;;;5044451;28;20190;-72
2022/05/01 03:22:15;;;;;;;4.43;3.63;;;9.60;99.90;;;;;;5045209;28;20590;-70
2022/05/01 03:24:42;;;;;;;4.60;3.23;;;9.60;99.90;;;;;;5043551;28;20190;-71
2022/05/01 03:27:09;;;;;;;5.07;3.47;;;9.60;99.90;;;;;;5044317;28;20241;-70
2022/05/01 03:29:37;;;;;;;5.03;4.43;;;9.50;99.90;;;;;;5044655;28;20206;-69
2022/05/01 03:32:07;;;;;;;4.23;3.83;;;9.50;99.90;;;;;;5044708;28;20190;-70
2022/05/01 03:34:37;;;;;;;3.80;3.33;;;9.50;99.90;;;;;;5044586;28;20232;-68
2022/05/01 03:37:06;;;;;;;5.57;4.07;;;9.40;99.90;;;;;;5043719;28;20597;-69
2022/05/01 03:39:33;;;;;;;4.57;3.20;;;9.40;99.90;;;;;;5044354;28;20646;-69
2022/05/01 03:41:59;;;;;;;5.03;3.90;;;9.40;99.90;;;;;;5044460;28;20205;-70
2022/05/01 03:44:24;;;;;;;3.70;3.40;;;9.40;99.90;;;;;;5044249;28;20190;-68
2022/05/01 03:46:50;;;;;;;4.33;3.93;;;9.40;99.90;;;;;;5042630;28;20236;-71
2022/05/01 03:49:15;;;;;;;4.80;3.60;;;9.40;99.90;;;;;;5042946;28;20198;-70
2022/05/01 03:51:42;;;;;;;4.43;3.93;;;9.40;99.90;;;;;;5044427;28;20197;-69
2022/05/01 03:54:08;;;;;;;4.97;3.63;;;9.40;99.90;;;;;;5044322;28;20217;-69
2022/05/01 03:56:34;;;;;;;5.20;3.83;;;9.40;99.90;;;;;;5043515;28;20225;-70
2022/05/01 03:59:00;;;;;;;4.17;3.53;;;9.50;99.90;;;;;;5042521;28;20210;-70
2022/05/01 04:01:26;;;;;;;6.37;4.20;;;9.40;99.90;;;;;;5043910;28;20181;-70
2022/05/01 04:03:54;;;;;;;4.43;3.80;;;9.40;99.90;;;;;;5044293;28;20221;-69
2022/05/01 04:06:20;;;;;;;4.10;3.70;;;9.40;99.90;;;;;;5043674;28;20191;-69
2022/05/01 04:08:47;;;;;;;6.37;4.13;;;9.40;99.90;;;;;;5043576;28;20198;-71
2022/05/01 04:11:13;;;;;;;7.47;4.80;;;9.40;99.90;;;;;;5042735;28;20543;-68
2022/05/01 04:13:38;;;;;;;7.97;5.47;;;9.40;99.90;;;;;;5044021;28;20186;-69
2022/05/01 04:16:04;;;;;;;6.93;5.60;;;9.40;99.90;;;;;;5044285;28;20207;-68
2022/05/01 04:18:34;;;;;;;6.10;5.10;;;9.40;99.90;;;;;;5042948;28;20182;-70
2022/05/01 04:21:00;;;;;;;5.50;5.00;;;9.50;99.90;;;;;;5043979;28;20218;-69
2022/05/01 04:23:26;;;;;;;5.13;4.60;;;9.40;99.90;;;;;;5043835;28;20572;-69
2022/05/01 04:25:52;;;;;;;5.47;4.67;;;9.50;99.90;;;;;;5043880;28;20186;-69
2022/05/01 04:28:18;;;;;;;4.70;4.20;;;9.60;99.90;;;;;;5042890;28;20186;-69
2022/05/01 04:30:45;;;;;;;4.40;4.00;;;9.70;99.90;;;;;;5043843;28;20590;-69
2022/05/01 04:33:13;;;;;;;4.90;3.70;;;9.90;99.90;;;;;;5043804;28;20178;-68
2022/05/01 04:35:50;;;;;;;4.17;3.77;;;9.80;99.90;;;;;;5043663;28;20692;-68
2022/05/01 04:38:21;;;;;;;5.17;4.00;;;9.70;99.90;;;;;;5042731;28;20182;-70
2022/05/01 04:40:53;;;;;;;4.47;3.87;;;9.70;99.90;;;;;;5043716;28;20329;-69
2022/05/01 04:43:21;;;;;;;4.43;3.80;;;9.70;99.90;;;;;;5043756;28;20217;-69
2022/05/01 04:45:54;;;;;;;5.07;3.80;;;9.70;99.90;;;;;;5043821;28;20170;-69
2022/05/01 04:48:21;;;;;;;5.33;3.90;;;9.60;99.90;;;;;;5042361;28;20198;-71
2022/05/01 04:50:47;;;;;;;3.83;3.47;;;9.70;99.90;;;;;;5043741;28;20838;-69
2022/05/01 04:53:15;;;;;;;3.77;3.47;;;9.70;99.90;;;;;;5043847;28;20214;-69
2022/05/01 04:55:43;;;;;;;4.20;3.80;;;9.70;99.90;;;;;;5043798;28;20669;-70
2022/05/01 04:58:09;;;;;;;3.97;3.57;;;9.70;99.90;;;;;;5042682;28;20195;-70
2022/05/01 05:00:35;;;;;;;4.13;3.27;;;9.60;99.90;;;;;;5043685;28;20819;-70
2022/05/01 05:03:03;;;;;;;4.77;4.17;;;9.70;99.90;;;;;;5045057;28;20210;-70
2022/05/01 05:05:31;;;;;;;4.57;4.07;;;9.70;99.90;;;;;;5047258;28;20610;-69
2022/05/01 05:09:53;;;;;;;4.87;4.20;;;9.70;99.90;;;;;;5046642;28;20218;-69
2022/05/01 05:10:46;;;;;;;5.50;4.07;;;9.80;99.90;;;;;;5047337;28;20277;-69
2022/05/01 05:13:15;;;;;;;5.57;3.90;;;9.80;99.90;;;;;;5046942;28;20182;-69
2022/05/01 05:15:41;;;;;;;3.87;3.57;;;9.80;99.90;;;;;;5047233;28;20286;-69
2022/05/01 05:18:07;;;;;;;4.93;3.60;;;9.70;99.90;;;;;;5046692;28;20293;-71
2022/05/01 05:20:33;;;;;;;5.57;3.93;;;9.70;99.90;;;;;;5047183;28;20289;-69
2022/05/01 05:22:59;;;;;;;3.83;3.43;;;9.70;99.90;;;;;;5045499;28;20696;-69
2022/05/01 05:25:24;;;;;;;4.83;3.53;;;9.70;99.90;;;;;;5047235;28;20273;-68
2022/05/01 05:27:50;;;;;;;4.80;3.80;;;9.60;99.90;;;;;;5045934;28;20572;-70
2022/05/01 05:30:16;;;;;;;4.57;3.57;;;9.60;99.90;;;;;;5047412;28;20233;-70
2022/05/01 05:32:41;;;;;;;4.93;4.07;;;9.60;99.90;;;;;;5046623;28;20225;-69
2022/05/01 05:35:08;;;;;;;8.30;5.27;;;9.60;99.90;;;;;;5046889;28;20205;-69
2022/05/01 05:37:33;;;;;;;7.37;4.50;;;9.70;99.90;;;;;;5045894;28;20190;-69
2022/05/01 05:40:00;;;;;;;7.00;4.70;;;9.70;99.90;;;;;;5046511;28;20257;-71
2022/05/01 05:42:26;;;;;;;5.67;4.27;;;9.70;99.90;;;;;;5046851;28;20209;-68
2022/05/01 05:44:51;;;;;;;5.20;4.27;;;9.90;99.90;;;;;;5046459;28;20584;-69
2022/05/01 05:47:17;;;;;;;4.33;3.93;;;10.00;99.90;;;;;;5045617;28;20178;-69
2022/05/01 05:49:43;;;;;;;5.87;4.10;;;10.00;99.90;;;;;;5046631;28;20198;-69
2022/05/01 05:52:08;;;;;;;6.77;4.40;;;10.10;99.90;;;;;;5046610;28;20205;-70
2022/05/01 05:54:34;;;;;;;4.97;3.97;;;10.20;99.90;;;;;;5046286;28;20183;-69
2022/05/01 05:57:00;;;;;;;5.30;4.23;;;10.10;99.90;;;;;;5046297;28;20212;-70
2022/05/01 05:59:25;;;;;;;4.70;4.27;;;10.10;99.90;;;;;;5046059;28;20206;-68
2022/05/01 06:01:51;;;;;;;4.37;3.97;;;10.20;99.90;;;;;;5045041;28;20213;-69
2022/05/01 06:04:17;;;;;;;5.97;4.20;;;10.20;99.90;;;;;;5045676;28;20182;-70
2022/05/01 06:06:42;;;;;;;4.07;3.67;;;10.20;99.90;;;;;;5045134;28;20637;-71
2022/05/01 06:09:09;;;;;;;4.20;3.57;;;10.20;99.90;;;;;;5045506;28;20204;-67
2022/05/01 06:11:38;;;;;;;5.13;3.73;;;10.10;99.90;;;;;;5045671;28;20189;-69
2022/05/01 06:14:04;;;;;;;5.53;4.00;;;10.00;99.90;;;;;;5044364;28;20179;-69
2022/05/01 06:16:31;;;;;;;5.63;3.97;;;10.10;99.90;;;;;;5045002;28;20189;-69
2022/05/01 06:18:58;;;;;;;4.47;4.00;;;10.10;99.90;;;;;;5045241;28;20232;-70
2022/05/01 06:21:24;;;;;;;5.20;3.70;;;10.00;99.90;;;;;;5045718;28;20182;-68
2022/05/01 06:23:50;;;;;;;5.37;4.17;;;10.20;99.90;;;;;;5046369;28;20648;-68
2022/05/01 06:26:15;;;;;;;5.47;3.70;;;10.10;99.90;;;;;;5044952;28;20224;-70
2022/05/01 06:28:41;;;;;;;4.60;3.70;;;10.20;99.90;;;;;;5044840;28;20207;-68
2022/05/01 06:31:07;;;;;;;5.43;4.20;;;10.30;99.90;;;;;;5044875;28;20289;-68
2022/05/01 06:33:35;;;;;;;5.37;4.50;;;10.30;99.90;;;;;;5045495;28;20209;-69
2022/05/01 06:36:01;;;;;;;5.57;4.40;;;10.40;99.90;;;;;;5045886;28;20191;-68
2022/05/01 06:38:28;;;;;;;5.63;4.30;;;10.40;99.90;;;;;;5044511;28;20665;-70
2022/05/01 06:40:54;;;;;;;6.47;4.20;;;10.60;99.90;;;;;;5046051;28;20231;-68
2022/05/01 06:43:20;;;;;;;4.40;4.00;;;10.70;99.90;;;;;;5045227;28;20210;-68
2022/05/01 06:45:47;;;;;;;4.13;3.73;;;10.70;99.90;;;;;;5045645;28;20170;-69
2022/05/01 06:48:12;;;;;;;4.77;3.90;;;10.80;99.90;;;;;;5044442;28;20188;-68
2022/05/01 06:50:38;;;;;;;5.23;4.07;;;10.80;99.90;;;;;;5045240;28;20273;-68
2022/05/01 06:53:05;;;;;;;5.07;4.47;;;10.90;99.90;;;;;;5045287;28;20186;-69
2022/05/01 06:55:31;;;;;;;5.85;4.40;;;10.90;99.90;;;;;;5045200;28;20672;-67
2022/05/01 06:57:57;;;;;;;7.67;4.20;;;10.90;99.90;;;;;;5043455;28;20194;-68
2022/05/01 07:00:24;;;;;;;6.10;4.07;;;11.00;99.90;;;;;;5044323;28;20206;-67
2022/05/01 07:02:51;;;;;;;5.93;4.63;;;10.90;99.90;;;;;;5043368;28;20340;-68
2022/05/01 07:05:18;;;;;;;6.75;4.47;;;11.00;99.90;;;;;;5043849;28;20183;-68
2022/05/01 07:07:44;;;;;;;5.40;4.20;;;11.00;99.90;;;;;;5044478;28;20182;-68
2022/05/01 07:10:10;;;;;;;8.50;5.22;;;11.10;99.90;;;;;;5045027;28;20202;-69
2022/05/01 07:12:37;;;;;;;5.70;4.30;;;11.10;99.90;;;;;;5044488;28;20197;-68
2022/05/01 07:15:03;;;;;;;6.27;4.57;;;11.10;99.90;;;;;;5044307;28;20288;-68
2022/05/01 07:17:28;;;;;;;5.57;4.43;;;11.10;99.90;;;;;;5043916;28;20216;-68
2022/05/01 07:19:54;;;;;;;4.78;4.13;;;11.20;99.90;;;;;;5044835;28;20691;-68
2022/05/01 07:22:20;;;;;;;5.30;4.40;;;11.00;99.90;;;;;;5044376;28;20789;-68
2022/05/01 07:24:45;;;;;;;6.83;4.53;;;10.70;99.90;;;;;;5044183;28;20184;-67
2022/05/01 07:27:11;;;;;;;5.17;4.27;;;10.70;99.90;;;;;;5043798;28;20221;-67
2022/05/01 07:29:37;;;;;;;5.70;4.47;;;10.70;99.90;;;;;;5044461;28;20280;-68
2022/05/01 07:32:03;;;;;;;5.70;4.23;;;10.60;99.90;;;;;;5041262;28;20565;-68
2022/05/01 07:34:29;;;;;;;6.73;4.63;;;10.50;99.90;;;;;;5044193;28;20189;-69
2022/05/01 07:36:54;;;;;;;4.70;4.17;;;10.70;99.90;;;;;;5042930;28;20190;-67
2022/05/01 07:39:20;;;;;;;5.93;4.72;;;10.80;99.90;;;;;;5041676;28;20730;-68
2022/05/01 07:41:46;;;;;;;6.80;5.00;;;10.80;99.90;;;;;;5042127;28;21052;-68
2022/05/01 07:44:12;;;;;;;5.40;4.90;;;10.90;99.90;;;;;;5041332;28;21022;-68
2022/05/01 07:46:41;;;;;;;5.50;4.27;;;11.00;99.90;;;;;;5040927;28;20676;-67
2022/05/01 07:49:08;;;;;;;5.10;4.25;;;11.10;99.90;;;;;;5042972;28;20253;-68
2022/05/01 07:51:34;;;;;;;5.40;4.17;;;10.90;99.90;;;;;;5043705;28;20369;-66
2022/05/01 07:54:00;;;;;;;5.93;4.80;;;11.10;99.90;;;;;;5043524;28;20189;-66
2022/05/01 07:56:27;;;;;;;5.30;4.47;;;11.20;99.90;;;;;;5043000;28;20263;-68
2022/05/01 07:58:53;;;;;;;6.78;4.70;;;11.40;99.90;;;;;;5043154;28;20194;-67
2022/05/01 08:01:18;;;;;;;5.00;4.30;;;11.50;99.90;;;;;;5043075;28;20267;-67
2022/05/01 08:06:29;;;;;;;6.18;4.85;;;11.50;99.90;;;;;;5042965;28;20205;-68
2022/05/01 08:08:54;;;;;;;7.13;4.95;;;11.70;99.90;;;;;;5043238;28;20586;-67
2022/05/01 08:11:20;;;;;;;6.60;5.35;;;11.90;99.90;;;;;;5043367;28;20178;-67
2022/05/01 08:13:46;;;;;;;6.28;4.43;;;11.60;99.90;;;;;;5043514;28;20227;-68
2022/05/01 08:16:12;;;;;;;6.05;5.00;;;11.60;99.90;;;;;;5042920;28;20192;-68
2022/05/01 08:21:22;;;;;;;6.43;4.47;;;11.80;99.90;;;;;;5043313;28;20664;-68
2022/05/01 08:23:48;;;;;;;5.93;4.57;;;12.00;99.90;;;;;;5042182;28;20186;-66
2022/05/01 08:26:17;;;;;;;7.07;4.85;;;12.10;99.90;;;;;;5042678;28;20182;-66
2022/05/01 08:28:44;;;;;;;4.93;3.90;;;12.20;99.90;;;;;;5043249;28;20202;-68
2022/05/01 08:31:10;;;;;;;4.93;4.22;;;12.30;99.90;;;;;;5043640;28;20237;-67
2022/05/01 08:33:36;;;;;;;6.82;4.57;;;12.30;99.90;;;;;;5042274;28;20186;-67
2022/05/01 08:36:06;;;;;;;7.40;4.95;;;12.30;99.90;;;;;;5041979;28;20221;-68
2022/05/01 08:38:32;;;;;;;6.32;4.45;;;12.30;99.90;;;;;;5045428;28;20191;-68
2022/05/01 08:40:58;;;;;;;5.28;4.78;;;12.40;99.90;;;;;;5045721;28;21276;-68
2022/05/01 08:43:25;;;;;;;6.55;4.50;;;12.50;99.90;;;;;;5045991;28;20214;-67
2022/05/01 08:45:59;;;;;;;5.75;4.53;;;12.50;99.90;;;;;;5047362;28;20228;-68
2022/05/01 08:48:44;;;;;;;7.93;4.80;;;12.60;99.90;;;;;;5045794;28;20204;-68
2022/05/01 08:51:11;;;;;;;5.88;4.90;;;12.60;99.90;;;;;;5046140;28;20530;-66
2022/05/01 08:53:37;;;;;;;7.22;4.50;;;12.70;99.90;;;;;;5046618;28;20209;-68
2022/05/01 08:56:07;;;;;;;5.60;4.45;;;12.80;99.90;;;;;;5046270;28;20701;-68
2022/05/01 08:58:34;;;;;;;5.38;4.50;;;12.90;99.90;;;;;;5044660;28;20553;-68
2022/05/01 09:00:59;;;;;;;8.60;4.63;;;13.00;99.90;;;;;;5047370;28;20197;-67
2022/05/01 09:03:25;;;;;;;6.53;4.80;;;13.20;99.90;;;;;;5046326;28;20908;-68
2022/05/01 09:05:51;;;;;;;6.85;4.20;;;13.10;99.90;;;;;;5046546;28;20550;-67
2022/05/01 09:08:17;;;;;;;4.63;4.22;;;13.10;99.90;;;;;;5045595;28;20665;-67
2022/05/01 09:10:45;;;;;;;5.82;4.55;;;13.00;99.90;;;;;;5046789;28;20653;-67
2022/05/01 09:13:11;;;;;;;5.80;4.13;;;13.20;99.90;;;;;;5046773;28;20661;-68
2022/05/01 09:15:40;;;;;;;5.93;4.90;;;13.50;99.90;;;;;;5046647;28;20202;-67
2022/05/01 09:18:08;;;;;;;5.07;4.53;;;13.50;99.90;;;;;;5045010;28;20189;-67
2022/05/01 09:20:38;;;;;;;5.15;4.32;;;13.50;99.90;;;;;;5046749;28;20209;-68
2022/05/01 09:23:05;;;;;;;7.88;4.45;;;13.60;99.90;;;;;;5046836;28;20293;-67
2022/05/01 09:25:32;;;;;;;4.95;4.25;;;13.60;99.90;;;;;;5046885;28;20703;-67
2022/05/01 09:28:02;;;;;;;6.45;4.28;;;13.60;99.90;;;;;;5046115;28;20514;-68
2022/05/01 09:30:35;;;;;;;5.32;4.22;;;13.70;99.90;;;;;;5045706;28;20234;-67
2022/05/01 09:33:02;;;;;;;5.00;4.35;;;13.40;99.90;;;;;;5045262;28;20194;-67
2022/05/01 09:35:33;;;;;;;6.72;4.72;;;13.40;99.90;;;;;;5046300;28;20290;-68
2022/05/01 09:38:23;;;;;;;5.68;4.35;;;13.70;99.90;;;;;;5043321;28;20177;-68
2022/05/01 09:40:54;;;;;;;6.20;4.47;;;13.80;99.90;;;;;;5046351;28;20198;-66
2022/05/01 09:43:45;;;;;;;6.97;4.15;;;14.00;99.90;;;;;;5046568;28;20205;-69
2022/05/01 09:46:22;;;;;;;7.03;4.90;;;14.20;99.90;;;;;;5046186;28;20182;-66
2022/05/01 09:49:01;;;;;;;5.72;4.18;;;14.30;99.90;;;;;;5043912;28;20256;-67
2022/05/01 09:51:28;;;;;;;7.18;4.35;;;14.40;99.90;;;;;;5045298;28;21147;-67
2022/05/01 09:53:54;;;;;;;7.45;4.90;;;14.40;99.90;;;;;;5046024;28;20174;-68
2022/05/01 09:56:20;;;;;;;5.90;4.10;;;14.80;99.90;;;;;;5046364;28;20200;-67
2022/05/01 09:58:56;;;;;;;5.38;4.20;;;14.80;99.90;;;;;;5044740;28;20508;-68
2022/05/01 10:01:21;;;;;;;5.60;4.63;;;14.40;99.90;;;;;;5044650;28;20192;-69
2022/05/01 10:03:47;;;;;;;6.55;4.28;;;14.40;99.90;;;;;;5044417;28;20202;-67
2022/05/01 10:06:14;;;;;;;4.80;4.10;;;14.40;99.90;;;;;;5044853;28;20228;-68
2022/05/01 10:08:42;;;;;;;8.40;4.55;;;14.70;99.90;;;;;;5044966;28;20716;-67
2022/05/01 10:11:08;;;;;;;5.07;4.10;;;14.80;99.90;;;;;;5044716;28;20190;-68
2022/05/01 10:13:35;;;;;;;4.78;4.15;;;14.80;99.90;;;;;;5045476;28;20197;-69
2022/05/01 10:16:04;;;;;;;6.22;4.38;;;14.50;99.90;;;;;;5044460;28;20178;-66
2022/05/01 10:18:29;;;;;;;7.00;4.20;;;14.50;99.90;;;;;;5044996;28;20217;-67
2022/05/01 10:20:55;;;;;;;5.93;3.97;;;14.20;99.90;;;;;;5044124;28;20867;-67
2022/05/01 10:23:21;;;;;;;6.53;4.47;;;14.20;99.90;;;;;;5045795;28;20213;-68
2022/05/01 10:26:02;;;;;;;5.90;3.83;;;14.40;99.90;;;;;;5045530;28;20198;-66
2022/05/01 10:28:55;;;;;;;5.22;3.60;;;14.60;99.90;;;;;;5044286;28;20174;-67
2022/05/01 10:32:21;;;;;;;4.07;3.50;;;14.90;99.90;;;;;;5045217;28;20437;-67
2022/05/01 10:35:03;;;;;;;4.20;3.30;;;15.10;99.90;;;;;;5060375;28;20564;-68
2022/05/01 10:37:49;;;;;;;4.65;3.20;;;15.40;99.90;;;;;;5044436;28;20178;-69
2022/05/01 10:40:15;;;;;;;4.95;3.00;;;15.60;99.90;;;;;;5045116;28;20244;-68
2022/05/01 10:42:48;;;;;;;3.20;2.70;;;15.40;99.90;;;;;;5045399;28;20238;-68
2022/05/01 10:45:22;;;;;;;5.68;3.10;;;15.20;99.90;;;;;;5043328;28;20179;-68
2022/05/01 10:47:50;;;;;;;2.50;2.13;;;15.10;99.90;;;;;;5043400;28;20267;-66
2022/05/01 10:50:24;;;;;;;3.65;2.60;;;15.10;99.90;;;;;;5043259;28;20567;-67
2022/05/01 10:53:04;;;;;;;4.53;1.75;;;15.30;99.90;;;;;;5044443;28;20186;-67
2022/05/01 10:55:50;;;;;;;3.50;1.92;;;15.20;99.90;;;;;;5044420;28;20220;-69
2022/05/01 10:58:19;;;;;;;2.38;1.90;;;15.30;99.10;;;;;;5043733;28;20661;-68
2022/05/01 11:00:46;;;;;;;3.08;1.73;;;15.40;98.70;;;;;;5043436;28;20194;-69
2022/05/01 11:03:26;;;;;;;2.08;1.88;;;15.40;99.40;;;;;;5043038;28;20228;-67
2022/05/01 11:06:13;;;;;;;3.45;2.00;;;15.30;99.10;;;;;;5044256;28;20667;-67
2022/05/01 11:08:40;;;;;;;2.25;1.80;;;15.10;94.90;;;;;;5042389;28;20213;-68
2022/05/01 11:11:10;;;;;;;2.05;1.80;;;14.90;94.00;;;;;;5044135;28;20191;-69
2022/05/01 11:13:38;;;;;;;2.25;1.83;;;14.70;95.10;;;;;;5044174;28;20240;-68
2022/05/01 11:16:05;;;;;;;2.13;1.70;;;14.90;95.40;;;;;;5043834;28;20273;-67
2022/05/01 11:18:35;;;;;;;2.20;1.73;;;15.00;93.50;;;;;;5043210;28;20178;-69
2022/05/01 11:21:19;;;;;;;1.98;1.63;;;15.20;93.30;;;;;;5044304;28;20231;-69
2022/05/01 11:23:59;;;;;;;1.60;1.50;;;15.00;91.70;;;;;;5043782;28;20257;-69
2022/05/01 11:26:25;;;;;;;2.22;1.80;;;15.00;92.20;;;;;;5043326;28;20657;-70
2022/05/01 11:28:53;;;;;;;2.30;1.98;;;15.20;92.50;;;;;;5043921;28;20241;-69
2022/05/01 11:31:37;;;;;;;2.97;2.03;;;15.40;92.60;;;;;;5044070;28;20562;-68
2022/05/01 11:34:22;;;;;;;1.80;1.70;;;15.10;92.20;;;;;;5043565;28;20489;-69
2022/05/01 11:36:58;;;;;;;2.42;1.70;;;15.00;92.50;;;;;;5043318;28;20190;-69
2022/05/01 11:39:45;;;;;;;2.70;1.77;;;15.30;92.50;;;;;;5042829;28;20753;-68
2022/05/01 11:42:25;;;;;;;3.40;1.70;;;15.30;92.90;;;;;;5043477;28;20573;-68
2022/05/01 11:44:53;;;;;;;1.95;1.80;;;15.50;92.40;;;;;;5042201;28;20188;-68
2022/05/01 11:47:19;;;;;;;3.35;2.30;;;15.20;92.10;;;;;;5042865;28;21001;-68
2022/05/01 11:49:45;;;;;;;2.28;1.95;;;15.30;92.70;;;;;;5043532;28;20202;-68
2022/05/01 11:52:13;;;;;;;1.95;1.77;;;15.60;92.80;;;;;;5043402;28;20192;-69
2022/05/01 11:54:52;;;;;;;2.85;1.88;;;15.90;91.60;;;;;;5042021;28;20596;-69
2022/05/01 12:03:03;;;;;;;2.60;2.17;;;16.20;90.90;;;;;;5043625;28;20285;-69
2022/05/01 12:05:30;;;;;;;3.13;2.28;;;16.40;92.20;;;;;;5042239;28;20273;-67
2022/05/01 12:07:57;;;;;;;3.58;2.42;;;16.10;90.80;;;;;;5042943;28;21380;-68
2022/05/01 12:10:28;;;;;;;2.47;2.20;;;16.00;91.30;;;;;;5043613;28;20781;-68
2022/05/01 12:12:54;;;;;;;2.53;2.30;;;16.30;92.00;;;;;;5042238;28;20264;-68
2022/05/01 12:15:20;;;;;;;3.92;2.67;;;16.20;91.80;;;;;;5043554;28;20652;-68
2022/05/01 12:17:45;;;;;;;3.03;2.58;;;16.00;92.30;;;;;;5041406;28;20226;-69
2022/05/01 12:20:12;;;;;;;3.15;2.35;;;16.00;91.80;;;;;;5041339;28;20214;-69
2022/05/01 12:22:37;;;;;;;2.83;2.17;;;16.10;91.50;;;;;;5039004;28;20260;-69
2022/05/01 12:25:07;;;;;;;3.35;2.33;;;16.10;91.20;;;;;;5042780;28;20849;-68
2022/05/01 12:27:40;;;;;;;3.45;2.35;;;16.00;91.00;;;;;;5041094;28;20309;-67
2022/05/01 12:30:07;;;;;;;2.63;2.08;;;15.80;91.60;;;;;;5042429;28;20543;-69
2022/05/01 12:32:33;;;;;;;4.13;2.60;;;16.00;91.30;;;;;;5043298;28;20185;-69
2022/05/01 12:35:01;;;;;;;2.95;2.20;;;16.00;90.70;;;;;;5042840;28;20190;-69
2022/05/01 12:37:38;;;;;;;3.75;2.53;;;16.10;90.10;;;;;;5039667;28;20193;-70
2022/05/01 12:40:12;;;;;;;4.32;2.00;;;16.30;90.80;;;;;;5042109;28;20688;-68
2022/05/01 12:45:46;;;;;;;3.30;2.60;;;17.00;90.20;;;;;;5043903;28;20181;-68
2022/05/01 12:48:13;;;;;;;3.35;2.63;;;17.40;90.50;;;;;;5042817;28;20182;-69
2022/05/01 12:50:40;;;;;;;3.05;2.40;;;17.50;91.20;;;;;;5042750;28;20190;-67
2022/05/01 12:53:28;;;;;;;3.40;2.58;;;17.70;91.40;;;;;;5043106;28;20206;-68
2022/05/01 12:55:56;;;;;;;2.83;2.22;;;17.90;90.00;;;;;;5042798;28;20229;-69
2022/05/01 12:58:33;;;;;;;2.03;1.92;;;18.20;87.00;;;;;;5042136;28;20190;-68
2022/05/01 13:01:02;;;;;;;3.97;2.40;;;17.50;86.30;;;;;;5043133;28;20200;-68
2022/05/01 13:03:36;;;;;;;3.05;2.22;;;17.20;88.50;;;;;;5041685;28;20218;-68
2022/05/01 13:06:16;;;;;;;3.72;2.40;;;17.40;88.40;;;;;;5043360;28;20182;-68
2022/05/01 13:08:47;;;;;;;5.35;2.47;;;17.00;87.90;;;;;;5040906;28;20202;-67
2022/05/01 13:11:30;;;;;;;2.95;2.05;;;17.10;88.70;;;;;;5042672;28;20269;-68
2022/05/01 13:14:09;;;;;;;4.43;2.63;;;16.90;87.80;;;;;;5042421;28;20208;-69
2022/05/01 13:16:34;;;;;;;3.47;2.28;;;15.90;88.00;;;;;;5042267;28;20224;-68
2022/05/01 13:19:15;;;;;;;2.63;2.38;;;15.90;89.10;;;;;;5043021;28;20571;-69